Monday, June 18, 2018, 8:40 PM EDT
Back to Local

KJYO, Leesburg / Godfrey

Location: Leesburg, VA, United States Lat: 39.083
Local Time: 8:40 PM EDT ( 0:40 GMT) Lon: -77.567
Time Zone: US/Eastern Elev: 390 ft

Show me the last for .
Show Decoded

2018-06-18 20:15 METAR KJYO 190015Z AUTO 00000KT 10SM CLR 31/26 A2990 RMK AO2 =
2018-06-18 19:55 METAR KJYO 182355Z AUTO 24003KT 10SM CLR 32/26 A2990 RMK AO2 =
2018-06-18 19:35 METAR KJYO 182335Z AUTO 23004KT 10SM CLR 32/26 A2990 RMK AO2 =
2018-06-18 19:15 METAR KJYO 182315Z AUTO 22006KT 10SM CLR 33/26 A2990 RMK AO2 =
2018-06-18 18:55 METAR KJYO 182255Z AUTO 22005KT 10SM CLR 33/26 A2990 RMK AO2 =
2018-06-18 18:35 METAR KJYO 182235Z AUTO 21005KT 10SM CLR 34/26 A2992 RMK AO2 =
2018-06-18 18:15 METAR KJYO 182215Z AUTO 21006KT 10SM CLR 34/26 A2993 RMK AO2 =
2018-06-18 17:55 METAR KJYO 182155Z AUTO 20005KT 10SM CLR 34/26 A2993 RMK AO2 =
2018-06-18 17:35 METAR KJYO 182135Z AUTO 20007KT 10SM CLR 34/26 A2993 RMK AO2 =
2018-06-18 17:15 METAR KJYO 182115Z AUTO 23003KT 10SM CLR 35/25 A2994 RMK AO2 =
2018-06-18 16:55 METAR KJYO 182055Z AUTO 23005KT 10SM CLR 34/25 A2995 RMK AO2 =
2018-06-18 16:35 METAR KJYO 182035Z AUTO 23007KT 10SM VCTS SCT070 SCT080 SCT110 34/25 A2995 RMK
                 AO2 LTG DSNT NE =
2018-06-18 16:15 METAR KJYO 182015Z AUTO 25004KT 10SM SCT090 SCT110 34/25 A2996 RMK AO2 =
2018-06-18 15:55 METAR KJYO 181955Z AUTO 27008KT 10SM SCT044 SCT060 35/24 A2997 RMK AO2 LTG DSNT
                 NE =
2018-06-18 15:35 METAR KJYO 181935Z AUTO 21006KT 10SM SCT044 SCT060 34/25 A2997 RMK AO2 LTG DSNT
                 NE =
2018-06-18 15:15 METAR KJYO 181915Z AUTO 25006KT 10SM SCT060 35/25 A2998 RMK AO2 =
2018-06-18 14:55 METAR KJYO 181855Z AUTO 23006KT 10SM CLR 35/25 A3000 RMK AO2 LTG DSNT N AND NW =
2018-06-18 14:35 METAR KJYO 181835Z AUTO 25006KT 10SM CLR 35/25 A3000 RMK AO2 LTG DSNT N =
2018-06-18 14:15 METAR KJYO 181815Z AUTO 00000KT 10SM CLR 33/24 A3001 RMK AO2 =
2018-06-18 13:55 METAR KJYO 181755Z AUTO 28007KT 10SM CLR 34/24 A3002 RMK AO2 =
2018-06-18 13:35 METAR KJYO 181735Z AUTO 28005KT 10SM SCT038 34/24 A3002 RMK AO2 =
2018-06-18 13:15 METAR KJYO 181715Z AUTO 23005KT 10SM SCT038 34/25 A3003 RMK AO2 =
2018-06-18 12:55 METAR KJYO 181655Z AUTO 23005KT 10SM CLR 33/25 A3004 RMK AO2 =
2018-06-18 12:35 METAR KJYO 181635Z AUTO 23004KT 10SM CLR 33/25 A3005 RMK AO2 LTG DSNT S =
2018-06-18 12:15 METAR KJYO 181615Z AUTO 26003KT 10SM SCT050 SCT070 32/25 A3006 RMK AO2 =
2018-06-18 11:55 METAR KJYO 181555Z AUTO 23004KT 10SM OVC050 31/24 A3006 RMK AO2 =
2018-06-18 11:35 METAR KJYO 181535Z AUTO 29003KT 10SM SCT050 SCT070 31/25 A3006 RMK AO2 =
2018-06-18 11:15 METAR KJYO 181515Z AUTO 27004KT 10SM CLR 31/24 A3006 RMK AO2 =
2018-06-18 10:55 METAR KJYO 181455Z AUTO 00000KT 10SM CLR 31/23 A3006 RMK AO2 =
2018-06-18 10:35 METAR KJYO 181435Z AUTO 24004KT 10SM CLR 30/23 A3006 RMK AO2 =
2018-06-18 10:15 METAR KJYO 181415Z AUTO 00000KT 10SM CLR 30/23 A3006 RMK AO2 =
2018-06-18 09:55 METAR KJYO 181355Z AUTO 27004KT 10SM CLR 29/22 A3006 RMK AO2 =
2018-06-18 09:35 METAR KJYO 181335Z AUTO 00000KT 10SM CLR 28/22 A3007 RMK AO2 =
2018-06-18 09:15 METAR KJYO 181315Z AUTO 22003KT 10SM CLR 27/22 A3007 RMK AO2 =
2018-06-18 08:55 METAR KJYO 181255Z AUTO 25003KT 10SM CLR 26/22 A3008 RMK AO2 =
2018-06-18 08:35 METAR KJYO 181235Z AUTO 23003KT 10SM CLR 26/21 A3008 RMK AO2 LTG DSNT S =
2018-06-18 08:15 METAR KJYO 181215Z AUTO 00000KT 10SM CLR 25/21 A3008 RMK AO2 =
2018-06-18 07:55 METAR KJYO 181155Z AUTO 00000KT 10SM CLR 23/21 A3008 RMK AO2 =
2018-06-18 07:35 METAR KJYO 181135Z AUTO 00000KT 10SM CLR 22/21 A3008 RMK AO2 =
2018-06-18 07:15 METAR KJYO 181115Z AUTO 00000KT 10SM CLR 22/21 A3008 RMK AO2 =
2018-06-18 06:55 METAR KJYO 181055Z AUTO 00000KT 10SM CLR 21/20 A3008 RMK AO2 =
2018-06-18 06:35 METAR KJYO 181035Z AUTO 00000KT 10SM CLR 20/20 A3009 RMK AO2 =
2018-06-18 06:15 METAR KJYO 181015Z AUTO 00000KT 10SM CLR 20/20 A3008 RMK AO2 =
2018-06-18 05:55 METAR KJYO 180955Z AUTO 00000KT 10SM CLR 19/19 A3008 RMK AO2 =
2018-06-18 05:35 METAR KJYO 180935Z AUTO 27003KT 10SM CLR 20/20 A3008 RMK AO2 =
2018-06-18 05:15 METAR KJYO 180915Z AUTO 00000KT 10SM CLR 20/20 A3008 RMK AO2 =
2018-06-18 04:55 METAR KJYO 180855Z AUTO 00000KT 10SM CLR 20/20 A3008 RMK AO2 =
2018-06-18 04:35 METAR KJYO 180835Z AUTO 00000KT 10SM CLR 20/20 A3008 RMK AO2 =
2018-06-18 04:15 METAR KJYO 180815Z AUTO 00000KT 10SM SCT050 21/21 A3008 RMK AO2 =
2018-06-18 03:55 METAR KJYO 180755Z AUTO 00000KT 10SM SCT050 21/21 A3008 RMK AO2 =
2018-06-18 03:35 METAR KJYO 180735Z AUTO 00000KT 10SM CLR 21/21 A3008 RMK AO2 =
2018-06-18 03:15 METAR KJYO 180715Z AUTO 00000KT 10SM CLR 22/21 A3008 RMK AO2 =
2018-06-18 02:55 METAR KJYO 180655Z AUTO 00000KT 10SM CLR 21/21 A3008 RMK AO2 =
2018-06-18 02:35 METAR KJYO 180635Z AUTO 27003KT 10SM CLR 21/21 A3008 RMK AO2 =
2018-06-18 02:15 METAR KJYO 180615Z AUTO 21004KT 10SM CLR 22/21 A3008 RMK AO2 =
2018-06-18 01:55 METAR KJYO 180555Z AUTO 18003KT 10SM CLR 23/22 A3009 RMK AO2 =
2018-06-18 01:35 METAR KJYO 180535Z AUTO 26003KT 10SM CLR 23/21 A3009 RMK AO2 =
2018-06-18 01:15 METAR KJYO 180515Z AUTO 00000KT 10SM CLR 23/21 A3009 RMK AO2 =
2018-06-18 00:55 METAR KJYO 180455Z AUTO 28004KT 10SM CLR 23/22 A3009 RMK AO2 =
2018-06-18 00:35 METAR KJYO 180435Z AUTO 30004KT 10SM CLR 23/22 A3009 RMK AO2 =
2018-06-18 00:15 METAR KJYO 180415Z AUTO 30003KT 10SM CLR 23/22 A3009 RMK AO2 =
2018-06-17 23:55 METAR KJYO 180355Z AUTO 26004KT 10SM CLR 23/22 A3008 RMK AO2 =
2018-06-17 23:35 METAR KJYO 180335Z AUTO 26003KT 10SM CLR 23/22 A3009 RMK AO2 =
2018-06-17 23:15 METAR KJYO 180315Z AUTO 00000KT 10SM CLR 24/22 A3008 RMK AO2 =
2018-06-17 22:55 METAR KJYO 180255Z AUTO 00000KT 10SM CLR 24/22 A3008 RMK AO2 =
2018-06-17 22:35 METAR KJYO 180235Z AUTO 00000KT 10SM CLR 26/22 A3009 RMK AO2 =
2018-06-17 22:15 METAR KJYO 180215Z AUTO 00000KT 10SM CLR 26/22 A3008 RMK AO2 =
2018-06-17 21:55 METAR KJYO 180155Z AUTO 00000KT 10SM CLR 26/22 A3008 RMK AO2 =
2018-06-17 21:35 METAR KJYO 180135Z AUTO 00000KT 10SM SCT090 27/22 A3008 RMK AO2 =
2018-06-17 21:15 METAR KJYO 180115Z AUTO 00000KT 10SM SCT090 26/22 A3008 RMK AO2 =
2018-06-17 20:55 METAR KJYO 180055Z AUTO 00000KT 10SM BKN080 28/22 A3007 RMK AO2 =

Support USWX by starting your Amazon purchase here.